Latest Coastal Weather Observations for Gabo Island

IDV60701

Issued at 6:11 pm EDT Wednesday 22 November 2017 (issued every 10 minutes, with the page automatically refreshed every 10 minutes)

About coastal observations | Map of coastal stations | Coastal observations for VIC | Marine services | Other Formats
Station Details ID: 084016 Name: GABO ISLAND LIGHTHOUSE Lat: -37.57 Lon: 149.92 Height: 15.2 m
Data from the previous 72 hours. | See also: Recent months at Gabo Island
Date/Time
EDT
Temp
°C
Wind Pressure Rain since
9am
mm
Weather Cloud Vis
km
Sea
Height
m
Swell
Dir  Spd
kts
Gust
kts
hPa Trend Height
m
Period
s
Dir
22/06:00pm 17.3 NE 19 21 1016.7 - 0.0 - - - - - - -
22/05:30pm 17.3 NE 21 23 1016.6 - 0.0 - - - - - - -
22/05:00pm 17.6 NE 22 24 1016.7 - 0.0 - - - - - - -
22/04:30pm 17.8 NE 22 24 1016.9 - 0.0 - - - - - - -
22/04:00pm 18.4 NE 20 22 1017.2 - 0.0 - - - - - - -
22/03:30pm 18.0 NE 21 23 1017.2 - 0.0 - - - - - - -
22/03:00pm 18.1 NE 22 24 1017.4 - 0.0 Fine Partly cloudy 30 1 0.8 7 NE
22/02:30pm 17.7 NE 21 23 1017.9 - 0.0 - - - - - - -
22/02:00pm 18.8 NE 21 24 1018.3 - 0.0 - - - - - - -
22/01:30pm 18.8 NE 21 23 1018.5 - 0.0 - - - - - - -
22/01:00pm 18.7 NE 20 23 1018.9 - 0.0 - - - - - - -
22/12:30pm 19.6 NE 20 23 1019.3 - 0.0 - - - - - - -
22/12:00pm 19.0 NE 20 23 1019.3 - 0.0 - - - - - - -
22/11:30am 18.1 NE 22 24 1019.4 - 0.0 - - - - - - -
22/11:00am 17.6 NE 22 24 1019.6 - 0.0 - - - - - - -
22/10:30am 17.6 NE 19 22 1020.0 - 0.0 - - - - - - -
22/10:00am 18.1 NE 18 22 1020.0 - 0.0 - - - - - - -
22/09:30am 18.0 NNE 15 19 1020.3 - 0.0 - - - - - - -
22/09:00am 18.8 NNE 15 22 1020.5 - 0.0 Fine Mostly clear 20 1 1.0 6 NE
22/08:30am 18.8 NNE 15 20 1020.5 - 0.0 - - - - - - -
22/08:00am 17.8 N 15 20 1020.6 - 0.0 - - - - - - -
22/07:30am 15.9 NNE 12 15 1020.6 - 0.0 - - - - - - -
22/07:00am 15.1 NNE 8 10 1020.6 - 0.0 - - - - - - -
22/06:30am 14.2 NNE 5 7 1020.6 - 0.0 - - - - - - -
22/06:00am 14.3 NE 9 10 1020.4 - 0.0 - - - - - - -
22/05:30am 14.3 NNE 6 7 1020.2 - 0.0 - - - - - - -
22/05:00am 14.3 NNE 7 8 1020.0 - 0.0 - - - - - - -
22/04:30am 14.6 NE 12 14 1020.0 - 0.0 - - - - - - -
22/04:00am 14.8 NE 10 12 1020.2 - 0.0 - - - - - - -
22/03:30am 14.9 NE 10 11 1020.3 - 0.0 - - - - - - -
22/03:00am 15.5 NE 13 15 1020.6 - 0.0 Fine Mostly clear 30 1 1.0 8 NE
22/02:30am 15.5 NNE 13 15 1020.6 - 0.0 - - - - - - -
22/02:00am 15.6 NNE 13 16 1020.8 - 0.0 - - - - - - -
22/01:30am 15.7 NNE 14 16 1020.9 - 0.0 - - - - - - -
22/01:00am 15.3 NE 16 21 1021.2 - 0.0 - - - - - - -
22/12:30am 15.7 NE 21 23 1021.2 - 0.0 - - - - - - -
22/12:00am 15.9 NE 21 24 1021.4 - 0.0 - - - - - - -
 
Date/Time
EDT
Temp
°C
Wind Pressure Rain since
9am
mm
Weather Cloud Vis
km
Sea
Height
m
Swell
Dir  Spd
kts
Gust
kts
hPa Trend Height
m
Period
s
Dir
21/11:30pm 15.8 NE 21 23 1021.7 - 0.0 - - - - - - -
21/11:00pm 15.8 NE 20 22 1022.0 - 0.0 - - - - - - -
21/10:30pm 15.8 NE 20 22 1022.0 - 0.0 - - - - - - -
21/10:00pm 15.6 NE 18 20 1022.2 - 0.0 - - - - - - -
21/09:30pm 15.6 NE 17 19 1022.3 - 0.0 - - - - - - -
21/09:00pm 15.6 NE 17 19 1022.2 - 0.0 Fine Mostly clear 30 1 0.8 7 NE
21/08:30pm 15.7 NE 18 20 1022.0 - 0.0 - - - - - - -
21/08:00pm 16.0 NE 19 22 1021.5 - 0.0 - - - - - - -
21/07:30pm 16.1 NE 19 21 1021.6 - 0.0 - - - - - - -
21/07:00pm 16.4 NE 21 23 1021.4 - 0.0 - - - - - - -
21/06:30pm 17.0 NE 21 25 1021.2 - 0.0 - - - - - - -
21/06:00pm 17.2 NE 22 25 1021.3 - 0.0 - - - - - - -
21/05:30pm 17.9 NE 23 26 1021.3 - 0.0 - - - - - - -
21/05:00pm 17.9 NE 24 27 1021.4 - 0.0 - - - - - - -
21/04:30pm 17.7 NE 23 25 1021.4 - 0.0 - - - - - - -
21/04:00pm 18.3 NE 24 27 1021.4 - 0.0 - - - - - - -
21/03:30pm 18.7 NE 25 29 1021.5 - 0.0 - - - - - - -
21/03:00pm 18.4 NE 25 28 1021.8 - 0.0 Fine Mostly clear 30 1 1.0 8 NE
21/02:30pm 18.3 NE 24 27 1022.1 - 0.0 - - - - - - -
21/02:00pm 18.3 NE 24 27 1022.4 - 0.0 - - - - - - -
21/01:30pm 18.6 NE 23 28 1022.8 - 0.0 - - - - - - -
21/01:00pm 19.3 NE 23 27 1023.1 - 0.0 - - - - - - -
21/12:30pm 18.6 NE 23 26 1023.5 - 0.0 - - - - - - -
21/12:00pm 18.5 NE 23 25 1023.8 - 0.0 - - - - - - -
21/11:30am 18.7 NE 22 25 1024.0 - 0.0 - - - - - - -
21/11:00am 18.1 NE 22 27 1024.2 - 0.0 - - - - - - -
21/10:30am 18.4 NE 20 25 1024.4 - 0.0 - - - - - - -
21/10:00am 17.6 NE 19 22 1024.4 - 0.0 - - - - - - -
21/09:30am 17.4 NE 18 20 1024.3 - 0.0 - - - - - - -
21/09:00am 17.1 NE 16 19 1024.3 - 0.0 Fine Mostly cloudy 20 1 1.0 9 NE
21/08:30am 17.0 NE 15 17 1024.4 - 0.0 - - - - - - -
21/08:00am 16.2 NE 16 17 1024.4 - 0.0 - - - - - - -
21/07:30am 16.1 NE 13 16 1024.2 - 0.0 - - - - - - -
21/07:00am 15.4 NE 14 15 1024.1 - 0.0 - - - - - - -
21/06:30am 14.9 NE 10 11 1024.0 - 0.0 - - - - - - -
21/06:00am 15.0 NNE 11 13 1023.6 - 0.0 - - - - - - -
21/05:30am 14.7 NE 11 13 1023.4 - 0.0 - - - - - - -
21/05:00am 14.9 NE 11 13 1023.1 - 0.0 - - - - - - -
21/04:30am 15.1 NNE 11 12 1023.0 - 0.0 - - - - - - -
21/04:00am 15.1 NE 12 14 1023.0 - 0.0 - - - - - - -
21/03:30am 15.4 NE 12 14 1023.2 - 0.0 - - - - - - -
21/03:00am 15.1 NE 13 15 1023.4 - 0.0 Fine Clear 30 1 1.0 8 NE
21/02:30am 15.4 NNE 14 16 1023.5 - 0.0 - - - - - - -
21/02:00am 16.6 NNE 18 22 1023.5 - 0.0 - - - - - - -
21/01:30am 16.5 NNE 17 20 1023.8 - 0.0 - - - - - - -
21/01:00am 16.2 NNE 16 20 1024.2 - 0.0 - - - - - - -
21/12:30am 16.2 NNE 15 17 1024.5 - 0.0 - - - - - - -
21/12:00am 15.8 NE 16 18 1024.7 - 0.0 - - - - - - -
 
Date/Time
EDT
Temp
°C
Wind Pressure Rain since
9am
mm
Weather Cloud Vis
km
Sea
Height
m
Swell
Dir  Spd
kts
Gust
kts
hPa Trend Height
m
Period
s
Dir
20/11:30pm 16.1 NE 17 20 1024.8 - 0.0 - - - - - - -
20/11:00pm 16.0 NE 16 18 1024.9 - 0.0 - - - - - - -
20/10:30pm 16.1 NE 17 19 1024.9 - 0.0 - - - - - - -
20/10:00pm 16.3 NE 18 21 1024.8 - 0.0 - - - - - - -
20/09:30pm 16.1 NE 15 18 1024.9 - 0.0 - - - - - - -
20/09:00pm 16.3 NE 17 20 1024.5 - 0.0 Fine Mostly clear 30 1 1.0 6 NE
20/08:30pm 16.3 NE 17 19 1024.4 - 0.0 - - - - - - -
20/08:00pm 16.5 NE 19 21 1024.3 - 0.0 - - - - - - -
20/07:30pm 16.7 NE 18 22 1024.0 - 0.0 - - - - - - -
20/07:00pm 16.9 NE 18 21 1023.8 - 0.0 - - - - - - -
20/06:30pm 17.2 NE 18 20 1023.7 - 0.0 - - - - - - -
20/06:00pm 17.6 NE 17 19 1023.8 - 0.0 - - - - - - -
20/05:30pm 17.8 NE 17 19 1023.7 - 0.0 - - - - - - -
20/05:00pm 18.1 NE 18 20 1023.9 - 0.0 - - - - - - -
20/04:30pm 18.6 NE 18 21 1023.9 - 0.0 - - - - - - -
20/04:00pm 18.8 NE 17 19 1024.2 - 0.0 - - - - - - -
20/03:30pm 18.9 NE 18 20 1024.5 - 0.0 - - - - - - -
20/03:00pm 19.0 NE 18 20 1024.7 - 0.0 Fine Mostly clear 25 1 1.0 6 NE
20/02:30pm 18.9 NE 19 21 1024.5 - 0.0 - - - - - - -
20/02:00pm 18.4 NE 18 19 1025.0 - 0.0 - - - - - - -
20/01:30pm 18.3 NE 18 20 1025.3 - 0.0 - - - - - - -
20/01:00pm 18.7 NE 19 21 1025.4 - 0.0 - - - - - - -
20/12:30pm 18.9 NE 21 22 1025.4 - 0.0 - - - - - - -
20/12:00pm 18.2 NE 19 21 1025.4 - 0.0 - - - - - - -
20/11:30am 18.9 NE 19 23 1025.3 - 0.0 - - - - - - -
20/11:00am 19.5 NE 18 22 1025.7 - 0.0 - - - - - - -
20/10:30am 18.9 NE 17 21 1025.8 - 0.0 - - - - - - -
20/10:00am 18.4 NE 16 19 1026.0 - 0.0 - - - - - - -
20/09:30am 17.5 NE 16 18 1025.7 - 0.0 - - - - - - -
20/09:00am 17.9 NNE 13 15 1026.0 - 0.0 Fine Mostly clear 20 1 0.8 6 NE
20/08:30am 16.8 NE 13 13 1026.3 - 0.0 - - - - - - -
20/08:00am 16.6 NE 13 14 1025.9 - 0.0 - - - - - - -
20/07:30am 16.4 NE 9 10 1025.7 - 0.0 - - - - - - -
20/07:00am 15.9 ENE 10 11 1025.3 - 0.0 - - - - - - -
20/06:30am 14.8 ENE 7 9 1024.9 - 0.0 - - - - - - -
20/06:00am 15.2 NNE 7 8 1024.6 - 0.0 - - - - - - -
20/05:30am 16.0 NNE 9 11 1024.5 - 0.0 - - - - - - -
20/05:00am 16.2 N 9 11 1024.4 - 0.0 - - - - - - -
20/04:30am 15.2 NNE 6 8 1024.4 - 0.0 - - - - - - -
20/04:00am 15.3 NNE 8 10 1024.2 - 0.0 - - - - - - -
20/03:30am 15.6 NE 9 10 1024.3 - 0.0 - - - - - - -
20/03:00am 16.0 NE 10 11 1024.2 - 0.0 Fine Partly cloudy 20 1 0.8 8 NE
20/02:30am 15.5 NNE 7 10 1024.4 - 0.0 - - - - - - -
20/02:00am 15.7 NNE 8 11 1024.4 - 0.0 - - - - - - -
20/01:30am 16.1 NE 11 12 1024.3 - 0.0 - - - - - - -
20/01:00am 16.4 NNE 13 15 1024.3 - 0.0 - - - - - - -
20/12:30am 16.5 NNE 11 14 1024.6 - 0.0 - - - - - - -
20/12:00am 16.7 NNE 11 14 1024.8 - 0.0 - - - - - - -
 
Date/Time
EDT
Temp
°C
Wind Pressure Rain since
9am
mm
Weather Cloud Vis
km
Sea
Height
m
Swell
Dir  Spd
kts
Gust
kts
hPa Trend Height
m
Period
s
Dir
19/11:30pm 16.3 NNE 12 15 1024.9 - 0.0 - - - - - - -
19/11:00pm 16.2 NE 13 15 1024.9 - 0.0 - - - - - - -
19/10:30pm 16.3 NE 13 15 1025.1 - 0.0 - - - - - - -
19/10:00pm 16.3 NE 14 16 1025.2 - 0.0 - - - - - - -
19/09:30pm 16.3 NE 12 13 1025.4 - 0.0 - - - - - - -
19/09:00pm 16.4 NE 14 15 1025.2 - 0.0 Fine Mostly cloudy 30 1 0.8 8 NE
19/08:30pm 16.6 NE 14 17 1024.8 - 0.0 - - - - - - -
19/08:00pm 16.7 NE 16 17 1024.6 - 0.0 - - - - - - -
19/07:30pm 17.0 NE 13 15 1024.6 - 0.0 - - - - - - -
19/07:00pm 17.2 NE 13 14 1024.6 - 0.0 - - - - - - -
19/06:30pm 17.6 NE 14 17 1024.1 - 0.0 - - - - - - -

Other Formats:

Comma delimited format used in spreadsheet applications
http://www.bom.gov.au/fwo/IDV60701/IDV60701.94933.axf

JavaScript Object Notation format (JSON) in row-major order
http://www.bom.gov.au/fwo/IDV60701/IDV60701.94933.json